sensor_id;sensor_type;location;lat;lon;timestamp;pressure;altitude;pressure_sealevel;temperature;humidity
60479;BME280;46321;48.398;11.754;2024-02-28T00:01:29;96404.41;;;4.68;85.77
60479;BME280;46321;48.398;11.754;2024-02-28T00:03:54;96399.28;;;4.66;85.63
60479;BME280;46321;48.398;11.754;2024-02-28T00:06:19;96398.75;;;4.63;85.66
60479;BME280;46321;48.398;11.754;2024-02-28T00:08:46;96400.94;;;4.57;85.62
60479;BME280;46321;48.398;11.754;2024-02-28T00:11:11;96393.50;;;4.53;85.97
60479;BME280;46321;48.398;11.754;2024-02-28T00:13:36;96389.66;;;4.47;86.47
60479;BME280;46321;48.398;11.754;2024-02-28T00:16:02;96399.59;;;4.43;86.71
60479;BME280;46321;48.398;11.754;2024-02-28T00:18:28;96399.44;;;4.45;86.21
60479;BME280;46321;48.398;11.754;2024-02-28T00:20:53;96401.63;;;4.40;86.74
60479;BME280;46321;48.398;11.754;2024-02-28T00:23:19;96402.19;;;4.33;86.60
60479;BME280;46321;48.398;11.754;2024-02-28T00:25:44;96403.44;;;4.29;86.69
60479;BME280;46321;48.398;11.754;2024-02-28T00:28:10;96399.03;;;4.20;87.08
60479;BME280;46321;48.398;11.754;2024-02-28T00:30:35;96393.94;;;4.18;87.16
60479;BME280;46321;48.398;11.754;2024-02-28T00:33:00;96399.56;;;4.23;87.11
60479;BME280;46321;48.398;11.754;2024-02-28T00:35:25;96399.56;;;4.23;86.98
60479;BME280;46321;48.398;11.754;2024-02-28T00:37:51;96384.13;;;4.10;87.96
60479;BME280;46321;48.398;11.754;2024-02-28T00:40:16;96397.91;;;4.12;87.97
60479;BME280;46321;48.398;11.754;2024-02-28T00:42:41;96389.94;;;4.14;87.54
60479;BME280;46321;48.398;11.754;2024-02-28T00:45:08;96390.88;;;4.13;87.09
60479;BME280;46321;48.398;11.754;2024-02-28T00:47:34;96399.03;;;4.10;87.61
60479;BME280;46321;48.398;11.754;2024-02-28T00:49:59;96401.06;;;4.06;87.85
60479;BME280;46321;48.398;11.754;2024-02-28T00:52:28;96402.88;;;4.06;87.84
60479;BME280;46321;48.398;11.754;2024-02-28T00:54:53;96414.56;;;4.01;87.93
60479;BME280;46321;48.398;11.754;2024-02-28T00:57:18;96416.78;;;4.06;87.90
60479;BME280;46321;48.398;11.754;2024-02-28T00:59:44;96417.19;;;4.01;87.82
60479;BME280;46321;48.398;11.754;2024-02-28T01:02:09;96418.88;;;4.03;87.89
60479;BME280;46321;48.398;11.754;2024-02-28T01:04:34;96423.81;;;4.06;87.43
60479;BME280;46321;48.398;11.754;2024-02-28T01:07:00;96432.78;;;3.93;88.09
60479;BME280;46321;48.398;11.754;2024-02-28T01:09:25;96441.56;;;3.92;88.22
60479;BME280;46321;48.398;11.754;2024-02-28T01:11:51;96449.88;;;3.87;88.21
60479;BME280;46321;48.398;11.754;2024-02-28T01:14:16;96449.13;;;3.85;88.32
60479;BME280;46321;48.398;11.754;2024-02-28T01:16:41;96454.81;;;3.81;88.31
60479;BME280;46321;48.398;11.754;2024-02-28T01:19:06;96445.81;;;3.73;88.50
60479;BME280;46321;48.398;11.754;2024-02-28T01:21:32;96462.09;;;3.77;88.37
60479;BME280;46321;48.398;11.754;2024-02-28T01:23:57;96468.16;;;3.77;88.23
60479;BME280;46321;48.398;11.754;2024-02-28T01:26:22;96485.47;;;3.69;89.21
60479;BME280;46321;48.398;11.754;2024-02-28T01:28:48;96480.72;;;3.84;88.34
60479;BME280;46321;48.398;11.754;2024-02-28T01:31:14;96486.34;;;3.79;88.93
60479;BME280;46321;48.398;11.754;2024-02-28T01:33:39;96484.00;;;3.76;88.21
60479;BME280;46321;48.398;11.754;2024-02-28T01:36:06;96486.44;;;3.67;87.95
60479;BME280;46321;48.398;11.754;2024-02-28T01:38:32;96492.09;;;3.63;88.10
60479;BME280;46321;48.398;11.754;2024-02-28T01:40:57;96496.59;;;3.61;88.27
60479;BME280;46321;48.398;11.754;2024-02-28T01:43:22;96506.13;;;3.62;88.15
60479;BME280;46321;48.398;11.754;2024-02-28T01:45:47;96502.41;;;3.64;88.20
60479;BME280;46321;48.398;11.754;2024-02-28T01:48:13;96503.66;;;3.60;88.11
60479;BME280;46321;48.398;11.754;2024-02-28T01:50:38;96511.22;;;3.63;88.09
60479;BME280;46321;48.398;11.754;2024-02-28T01:53:06;96508.59;;;3.63;88.31
60479;BME280;46321;48.398;11.754;2024-02-28T01:55:32;96511.41;;;3.72;87.92
60479;BME280;46321;48.398;11.754;2024-02-28T01:57:57;96513.91;;;3.73;87.97
60479;BME280;46321;48.398;11.754;2024-02-28T02:00:23;96511.72;;;3.78;87.42
60479;BME280;46321;48.398;11.754;2024-02-28T02:02:50;96508.44;;;3.86;87.20
60479;BME280;46321;48.398;11.754;2024-02-28T02:05:15;96504.56;;;3.81;87.38
60479;BME280;46321;48.398;11.754;2024-02-28T02:07:43;96508.69;;;3.83;87.53
60479;BME280;46321;48.398;11.754;2024-02-28T02:10:09;96505.25;;;3.83;87.33
60479;BME280;46321;48.398;11.754;2024-02-28T02:12:37;96514.59;;;3.85;87.38
60479;BME280;46321;48.398;11.754;2024-02-28T02:15:02;96505.81;;;3.86;87.09
60479;BME280;46321;48.398;11.754;2024-02-28T02:17:27;96514.75;;;3.84;87.11
60479;BME280;46321;48.398;11.754;2024-02-28T02:19:53;96507.34;;;3.89;86.97
60479;BME280;46321;48.398;11.754;2024-02-28T02:22:18;96503.03;;;3.88;86.95
60479;BME280;46321;48.398;11.754;2024-02-28T02:24:45;96505.38;;;3.81;87.29
60479;BME280;46321;48.398;11.754;2024-02-28T02:27:10;96511.19;;;3.85;87.17
60479;BME280;46321;48.398;11.754;2024-02-28T02:29:36;96510.75;;;3.80;87.31
60479;BME280;46321;48.398;11.754;2024-02-28T02:32:01;96508.25;;;3.78;87.43
60479;BME280;46321;48.398;11.754;2024-02-28T02:34:26;96509.78;;;3.81;87.38
60479;BME280;46321;48.398;11.754;2024-02-28T02:36:51;96511.84;;;3.77;87.49
60479;BME280;46321;48.398;11.754;2024-02-28T02:39:17;96518.75;;;3.78;87.23
60479;BME280;46321;48.398;11.754;2024-02-28T02:41:42;96516.22;;;3.66;87.60
60479;BME280;46321;48.398;11.754;2024-02-28T02:44:08;96521.28;;;3.58;87.86
60479;BME280;46321;48.398;11.754;2024-02-28T02:46:34;96514.63;;;3.54;87.68
60479;BME280;46321;48.398;11.754;2024-02-28T02:48:59;96512.72;;;3.56;88.02
60479;BME280;46321;48.398;11.754;2024-02-28T02:51:24;96516.44;;;3.53;87.85
60479;BME280;46321;48.398;11.754;2024-02-28T02:53:50;96517.66;;;3.49;87.98
60479;BME280;46321;48.398;11.754;2024-02-28T02:56:15;96513.22;;;3.50;87.89
60479;BME280;46321;48.398;11.754;2024-02-28T02:58:41;96512.28;;;3.51;87.83
60479;BME280;46321;48.398;11.754;2024-02-28T03:01:06;96522.59;;;3.52;88.04
60479;BME280;46321;48.398;11.754;2024-02-28T03:03:31;96511.75;;;3.57;87.52
60479;BME280;46321;48.398;11.754;2024-02-28T03:05:56;96519.84;;;3.54;87.75
60479;BME280;46321;48.398;11.754;2024-02-28T03:08:22;96512.97;;;3.53;87.95
60479;BME280;46321;48.398;11.754;2024-02-28T03:10:47;96515.41;;;3.45;88.06
60479;BME280;46321;48.398;11.754;2024-02-28T03:13:12;96517.06;;;3.46;88.34
60479;BME280;46321;48.398;11.754;2024-02-28T03:15:37;96516.50;;;3.42;88.22
60479;BME280;46321;48.398;11.754;2024-02-28T03:18:03;96517.03;;;3.36;88.46
60479;BME280;46321;48.398;11.754;2024-02-28T03:20:28;96520.13;;;3.29;88.79
60479;BME280;46321;48.398;11.754;2024-02-28T03:22:54;96523.03;;;3.26;89.03
60479;BME280;46321;48.398;11.754;2024-02-28T03:25:19;96525.78;;;3.25;89.01
60479;BME280;46321;48.398;11.754;2024-02-28T03:27:44;96530.16;;;3.24;88.51
60479;BME280;46321;48.398;11.754;2024-02-28T03:30:09;96535.50;;;3.23;88.71
60479;BME280;46321;48.398;11.754;2024-02-28T03:32:35;96534.63;;;3.12;89.39
60479;BME280;46321;48.398;11.754;2024-02-28T03:35:00;96538.91;;;3.13;89.41
60479;BME280;46321;48.398;11.754;2024-02-28T03:37:25;96538.78;;;3.15;89.46
60479;BME280;46321;48.398;11.754;2024-02-28T03:39:51;96542.47;;;3.12;89.73
60479;BME280;46321;48.398;11.754;2024-02-28T03:42:16;96533.94;;;3.10;89.64
60479;BME280;46321;48.398;11.754;2024-02-28T03:44:42;96535.00;;;3.07;89.51
60479;BME280;46321;48.398;11.754;2024-02-28T03:47:07;96543.81;;;3.06;90.09
60479;BME280;46321;48.398;11.754;2024-02-28T03:49:32;96542.47;;;3.12;89.87
60479;BME280;46321;48.398;11.754;2024-02-28T03:51:57;96555.75;;;3.20;89.58
60479;BME280;46321;48.398;11.754;2024-02-28T03:54:23;96559.31;;;3.19;89.60
60479;BME280;46321;48.398;11.754;2024-02-28T03:56:48;96560.78;;;3.12;89.87
60479;BME280;46321;48.398;11.754;2024-02-28T03:59:13;96563.91;;;3.06;89.92
60479;BME280;46321;48.398;11.754;2024-02-28T04:01:38;96566.75;;;3.03;90.29
60479;BME280;46321;48.398;11.754;2024-02-28T04:04:04;96575.72;;;3.00;90.45
60479;BME280;46321;48.398;11.754;2024-02-28T04:06:29;96572.13;;;3.01;90.21
60479;BME280;46321;48.398;11.754;2024-02-28T04:08:55;96580.47;;;2.95;90.54
60479;BME280;46321;48.398;11.754;2024-02-28T04:11:20;96582.09;;;2.74;91.66
60479;BME280;46321;48.398;11.754;2024-02-28T04:13:45;96590.63;;;2.77;91.46
60479;BME280;46321;48.398;11.754;2024-02-28T04:16:11;96590.47;;;2.90;91.38
60479;BME280;46321;48.398;11.754;2024-02-28T04:18:36;96590.75;;;2.86;91.16
60479;BME280;46321;48.398;11.754;2024-02-28T04:21:02;96589.06;;;2.85;91.15
60479;BME280;46321;48.398;11.754;2024-02-28T04:23:27;96587.84;;;2.90;90.46
60479;BME280;46321;48.398;11.754;2024-02-28T04:25:52;96593.72;;;2.82;90.49
60479;BME280;46321;48.398;11.754;2024-02-28T04:28:17;96596.34;;;2.82;90.37
60479;BME280;46321;48.398;11.754;2024-02-28T04:30:43;96594.28;;;2.85;90.16
60479;BME280;46321;48.398;11.754;2024-02-28T04:33:08;96603.59;;;2.67;90.78
60479;BME280;46321;48.398;11.754;2024-02-28T04:35:34;96608.53;;;2.60;91.56
60479;BME280;46321;48.398;11.754;2024-02-28T04:37:59;96610.03;;;2.62;91.62
60479;BME280;46321;48.398;11.754;2024-02-28T04:40:24;96616.69;;;2.67;91.81
60479;BME280;46321;48.398;11.754;2024-02-28T04:42:49;96621.88;;;2.78;91.37
60479;BME280;46321;48.398;11.754;2024-02-28T04:45:15;96622.81;;;2.89;90.97
60479;BME280;46321;48.398;11.754;2024-02-28T04:47:40;96626.00;;;2.92;90.97
60479;BME280;46321;48.398;11.754;2024-02-28T04:50:06;96627.56;;;2.95;90.90
60479;BME280;46321;48.398;11.754;2024-02-28T04:52:32;96625.97;;;3.04;90.34
60479;BME280;46321;48.398;11.754;2024-02-28T04:54:57;96640.13;;;3.01;90.27
60479;BME280;46321;48.398;11.754;2024-02-28T04:57:22;96641.66;;;3.04;90.21
60479;BME280;46321;48.398;11.754;2024-02-28T04:59:48;96630.84;;;3.08;89.94
60479;BME280;46321;48.398;11.754;2024-02-28T05:02:13;96629.16;;;3.07;90.21
60479;BME280;46321;48.398;11.754;2024-02-28T05:04:38;96641.88;;;3.12;89.73
60479;BME280;46321;48.398;11.754;2024-02-28T05:07:04;96641.75;;;3.14;89.70
60479;BME280;46321;48.398;11.754;2024-02-28T05:09:29;96650.94;;;3.08;89.71
60479;BME280;46321;48.398;11.754;2024-02-28T05:11:54;96656.03;;;3.09;89.86
60479;BME280;46321;48.398;11.754;2024-02-28T05:14:20;96655.66;;;3.14;89.90
60479;BME280;46321;48.398;11.754;2024-02-28T05:16:47;96657.91;;;3.19;89.47
60479;BME280;46321;48.398;11.754;2024-02-28T05:19:12;96658.47;;;3.23;89.23
60479;BME280;46321;48.398;11.754;2024-02-28T05:21:42;96659.44;;;3.22;89.02
60479;BME280;46321;48.398;11.754;2024-02-28T05:24:08;96659.44;;;3.22;88.98
60479;BME280;46321;48.398;11.754;2024-02-28T05:26:36;96667.81;;;3.15;89.28
60479;BME280;46321;48.398;11.754;2024-02-28T05:29:03;96670.03;;;3.20;89.27
60479;BME280;46321;48.398;11.754;2024-02-28T05:31:29;96671.69;;;3.21;89.17
60479;BME280;46321;48.398;11.754;2024-02-28T05:33:55;96677.75;;;3.22;89.54
60479;BME280;46321;48.398;11.754;2024-02-28T05:36:24;96666.22;;;3.24;89.40
60479;BME280;46321;48.398;11.754;2024-02-28T05:38:50;96671.69;;;3.21;89.13
60479;BME280;46321;48.398;11.754;2024-02-28T05:41:16;96678.59;;;3.22;89.21
60479;BME280;46321;48.398;11.754;2024-02-28T05:43:42;96680.50;;;3.20;89.42
60479;BME280;46321;48.398;11.754;2024-02-28T05:46:08;96683.69;;;3.24;89.26
60479;BME280;46321;48.398;11.754;2024-02-28T05:48:33;96696.22;;;3.20;89.56
60479;BME280;46321;48.398;11.754;2024-02-28T05:51:00;96700.59;;;3.19;89.53
60479;BME280;46321;48.398;11.754;2024-02-28T05:53:26;96702.84;;;3.24;89.87
60479;BME280;46321;48.398;11.754;2024-02-28T05:55:55;96713.75;;;3.29;89.47
60479;BME280;46321;48.398;11.754;2024-02-28T05:58:22;96721.13;;;3.36;89.48
60479;BME280;46321;48.398;11.754;2024-02-28T06:00:48;96731.09;;;3.42;89.42
60479;BME280;46321;48.398;11.754;2024-02-28T06:03:13;96735.50;;;3.41;89.54
60479;BME280;46321;48.398;11.754;2024-02-28T06:05:38;96742.41;;;3.42;89.62
60479;BME280;46321;48.398;11.754;2024-02-28T06:08:04;96737.97;;;3.43;89.62
60479;BME280;46321;48.398;11.754;2024-02-28T06:10:29;96742.16;;;3.46;89.85
60479;BME280;46321;48.398;11.754;2024-02-28T06:12:55;96742.41;;;3.42;90.32
60479;BME280;46321;48.398;11.754;2024-02-28T06:15:20;96746.53;;;3.45;90.39
60479;BME280;46321;48.398;11.754;2024-02-28T06:17:45;96740.22;;;3.48;90.25
60479;BME280;46321;48.398;11.754;2024-02-28T06:20:10;96745.09;;;3.52;90.37
60479;BME280;46321;48.398;11.754;2024-02-28T06:22:36;96749.03;;;3.58;90.36
60479;BME280;46321;48.398;11.754;2024-02-28T06:25:01;96749.47;;;3.63;90.05
60479;BME280;46321;48.398;11.754;2024-02-28T06:27:26;96750.63;;;3.71;89.65
60479;BME280;46321;48.398;11.754;2024-02-28T06:29:52;96756.09;;;3.67;90.01
60479;BME280;46321;48.398;11.754;2024-02-28T06:32:17;96760.97;;;3.72;90.29
60479;BME280;46321;48.398;11.754;2024-02-28T06:34:42;96755.63;;;3.74;89.91
60479;BME280;46321;48.398;11.754;2024-02-28T06:37:08;96760.97;;;3.72;90.10
60479;BME280;46321;48.398;11.754;2024-02-28T06:39:33;96763.13;;;3.78;89.94
60479;BME280;46321;48.398;11.754;2024-02-28T06:41:58;96770.31;;;3.86;89.64
60479;BME280;46321;48.398;11.754;2024-02-28T06:44:24;96779.59;;;3.91;89.52
60479;BME280;46321;48.398;11.754;2024-02-28T06:46:49;96775.88;;;3.93;89.08
60479;BME280;46321;48.398;11.754;2024-02-28T06:49:15;96782.22;;;3.91;89.26
60479;BME280;46321;48.398;11.754;2024-02-28T06:51:40;96788.03;;;3.94;89.23
60479;BME280;46321;48.398;11.754;2024-02-28T06:54:05;96784.31;;;3.97;89.11
60479;BME280;46321;48.398;11.754;2024-02-28T06:56:30;96794.09;;;3.95;89.28
60479;BME280;46321;48.398;11.754;2024-02-28T06:58:56;96789.81;;;3.94;89.51
60479;BME280;46321;48.398;11.754;2024-02-28T07:01:21;96798.13;;;3.99;89.77
60479;BME280;46321;48.398;11.754;2024-02-28T07:03:46;96805.75;;;4.02;89.33
60479;BME280;46321;48.398;11.754;2024-02-28T07:06:12;96802.19;;;4.03;89.34
60479;BME280;46321;48.398;11.754;2024-02-28T07:08:37;96806.19;;;4.07;89.04
60479;BME280;46321;48.398;11.754;2024-02-28T07:11:02;96810.94;;;4.14;88.65
60479;BME280;46321;48.398;11.754;2024-02-28T07:13:28;96800.31;;;4.15;88.87
60479;BME280;46321;48.398;11.754;2024-02-28T07:15:54;96807.94;;;4.18;88.74
60479;BME280;46321;48.398;11.754;2024-02-28T07:18:19;96804.22;;;4.21;88.87
60479;BME280;46321;48.398;11.754;2024-02-28T07:20:45;96805.88;;;4.22;88.86
60479;BME280;46321;48.398;11.754;2024-02-28T07:23:11;96806.72;;;4.22;89.17
60479;BME280;46321;48.398;11.754;2024-02-28T07:25:37;96807.97;;;4.28;89.01
60479;BME280;46321;48.398;11.754;2024-02-28T07:28:02;96804.75;;;4.36;88.62
60479;BME280;46321;48.398;11.754;2024-02-28T07:30:28;96805.31;;;4.40;88.66
60479;BME280;46321;48.398;11.754;2024-02-28T07:32:53;96811.06;;;4.33;89.20
60479;BME280;46321;48.398;11.754;2024-02-28T07:35:19;96804.59;;;4.38;89.28
60479;BME280;46321;48.398;11.754;2024-02-28T07:37:45;96809.09;;;4.47;89.06
60479;BME280;46321;48.398;11.754;2024-02-28T07:40:11;96808.00;;;4.50;89.14
60479;BME280;46321;48.398;11.754;2024-02-28T07:42:36;96808.31;;;4.56;89.09
60479;BME280;46321;48.398;11.754;2024-02-28T07:45:02;96804.47;;;4.61;89.12
60479;BME280;46321;48.398;11.754;2024-02-28T07:47:27;96804.72;;;4.57;88.78
60479;BME280;46321;48.398;11.754;2024-02-28T07:49:53;96817.44;;;4.62;89.05
60479;BME280;46321;48.398;11.754;2024-02-28T07:52:19;96804.66;;;4.69;88.70
60479;BME280;46321;48.398;11.754;2024-02-28T07:54:44;96818.44;;;4.71;88.53
60479;BME280;46321;48.398;11.754;2024-02-28T07:57:10;96822.38;;;4.77;88.30
60479;BME280;46321;48.398;11.754;2024-02-28T07:59:42;96819.59;;;4.78;88.06
60479;BME280;46321;48.398;11.754;2024-02-28T08:02:07;96813.97;;;4.83;88.10
60479;BME280;46321;48.398;11.754;2024-02-28T08:04:33;96813.00;;;4.84;88.13
60479;BME280;46321;48.398;11.754;2024-02-28T08:06:59;96816.19;;;4.88;88.05
60479;BME280;46321;48.398;11.754;2024-02-28T08:09:24;96822.00;;;4.91;88.17
60479;BME280;46321;48.398;11.754;2024-02-28T08:11:49;96821.16;;;4.91;88.03
60479;BME280;46321;48.398;11.754;2024-02-28T08:14:15;96821.91;;;5.03;87.43
60479;BME280;46321;48.398;11.754;2024-02-28T08:16:40;96816.00;;;5.11;87.00
60479;BME280;46321;48.398;11.754;2024-02-28T08:19:05;96814.09;;;5.13;86.84
60479;BME280;46321;48.398;11.754;2024-02-28T08:21:30;96819.22;;;5.14;86.90
60479;BME280;46321;48.398;11.754;2024-02-28T08:23:56;96825.69;;;5.20;86.45
60479;BME280;46321;48.398;11.754;2024-02-28T08:26:23;96826.41;;;5.22;86.33
60479;BME280;46321;48.398;11.754;2024-02-28T08:28:48;96829.59;;;5.26;86.11
60479;BME280;46321;48.398;11.754;2024-02-28T08:31:14;96826.84;;;5.27;85.91
60479;BME280;46321;48.398;11.754;2024-02-28T08:33:40;96830.84;;;5.32;85.55
60479;BME280;46321;48.398;11.754;2024-02-28T08:36:06;96828.94;;;5.34;85.46
60479;BME280;46321;48.398;11.754;2024-02-28T08:38:31;96842.06;;;5.34;85.44
60479;BME280;46321;48.398;11.754;2024-02-28T08:40:57;96836.09;;;5.32;85.30
60479;BME280;46321;48.398;11.754;2024-02-28T08:43:22;96840.25;;;5.34;85.09
60479;BME280;46321;48.398;11.754;2024-02-28T08:45:47;96844.97;;;5.41;85.01
60479;BME280;46321;48.398;11.754;2024-02-28T08:48:12;96843.19;;;5.41;85.08
60479;BME280;46321;48.398;11.754;2024-02-28T08:50:38;96849.00;;;5.45;85.19
60479;BME280;46321;48.398;11.754;2024-02-28T08:53:04;96857.16;;;5.42;85.10
60479;BME280;46321;48.398;11.754;2024-02-28T08:55:29;96858.84;;;5.53;84.48
60479;BME280;46321;48.398;11.754;2024-02-28T08:57:55;96860.78;;;5.60;84.61
60479;BME280;46321;48.398;11.754;2024-02-28T09:00:21;96866.19;;;5.59;84.53
60479;BME280;46321;48.398;11.754;2024-02-28T09:02:46;96875.59;;;5.61;84.26
60479;BME280;46321;48.398;11.754;2024-02-28T09:05:12;96871.59;;;5.67;84.14
60479;BME280;46321;48.398;11.754;2024-02-28T09:07:37;96872.44;;;5.78;83.60
60479;BME280;46321;48.398;11.754;2024-02-28T09:10:06;96873.84;;;5.82;83.56
60479;BME280;46321;48.398;11.754;2024-02-28T09:12:31;96869.69;;;5.89;83.53
60479;BME280;46321;48.398;11.754;2024-02-28T09:14:57;96876.63;;;6.00;82.88
60479;BME280;46321;48.398;11.754;2024-02-28T09:17:23;96875.00;;;6.09;82.26
60479;BME280;46321;48.398;11.754;2024-02-28T09:19:49;96883.44;;;6.13;82.20
60479;BME280;46321;48.398;11.754;2024-02-28T09:22:14;96888.16;;;6.19;81.26
60479;BME280;46321;48.398;11.754;2024-02-28T09:24:40;96884.28;;;6.13;81.82
60479;BME280;46321;48.398;11.754;2024-02-28T09:27:05;96892.44;;;6.20;81.28
60479;BME280;46321;48.398;11.754;2024-02-28T09:29:30;96888.28;;;6.17;80.82
60479;BME280;46321;48.398;11.754;2024-02-28T09:31:56;96890.09;;;6.27;80.43
60479;BME280;46321;48.398;11.754;2024-02-28T09:34:21;96891.88;;;6.16;80.24
60479;BME280;46321;48.398;11.754;2024-02-28T09:36:47;96893.00;;;6.24;79.94
60479;BME280;46321;48.398;11.754;2024-02-28T09:39:13;96888.16;;;6.29;80.10
60479;BME280;46321;48.398;11.754;2024-02-28T09:41:38;96888.16;;;6.29;80.57
60479;BME280;46321;48.398;11.754;2024-02-28T09:44:06;96890.66;;;6.30;80.11
60479;BME280;46321;48.398;11.754;2024-02-28T09:46:32;96898.00;;;6.27;80.25
60479;BME280;46321;48.398;11.754;2024-02-28T09:49:03;96899.91;;;6.35;80.47
60479;BME280;46321;48.398;11.754;2024-02-28T09:51:32;96906.97;;;6.34;80.10
60479;BME280;46321;48.398;11.754;2024-02-28T09:53:59;96908.09;;;6.41;79.88
60479;BME280;46321;48.398;11.754;2024-02-28T09:56:25;96903.50;;;6.44;79.57
60479;BME280;46321;48.398;11.754;2024-02-28T09:58:54;96905.06;;;6.56;79.39
60479;BME280;46321;48.398;11.754;2024-02-28T10:01:19;96919.16;;;6.45;79.44
60479;BME280;46321;48.398;11.754;2024-02-28T10:03:47;96912.50;;;6.41;79.57
60479;BME280;46321;48.398;11.754;2024-02-28T10:06:12;96906.00;;;6.45;79.54
60479;BME280;46321;48.398;11.754;2024-02-28T10:08:38;96909.31;;;6.57;78.82
60479;BME280;46321;48.398;11.754;2024-02-28T10:11:04;96912.38;;;6.62;78.60
60479;BME280;46321;48.398;11.754;2024-02-28T10:13:30;96910.84;;;6.70;78.31
60479;BME280;46321;48.398;11.754;2024-02-28T10:15:56;96914.03;;;6.73;77.62
60479;BME280;46321;48.398;11.754;2024-02-28T10:18:21;96912.91;;;6.76;77.68
60479;BME280;46321;48.398;11.754;2024-02-28T10:20:47;96914.97;;;6.82;76.38
60479;BME280;46321;48.398;11.754;2024-02-28T10:23:12;96920.66;;;6.87;76.79
60479;BME280;46321;48.398;11.754;2024-02-28T10:25:46;96923.28;;;6.87;77.10
60479;BME280;46321;48.398;11.754;2024-02-28T10:28:12;96930.50;;;6.85;77.01
60479;BME280;46321;48.398;11.754;2024-02-28T10:30:40;96923.56;;;6.84;76.62
60479;BME280;46321;48.398;11.754;2024-02-28T10:33:13;96926.34;;;6.83;76.62
60479;BME280;46321;48.398;11.754;2024-02-28T10:35:39;96929.94;;;6.82;76.76
60479;BME280;46321;48.398;11.754;2024-02-28T10:38:06;96929.25;;;6.80;76.16
60479;BME280;46321;48.398;11.754;2024-02-28T10:40:31;96925.50;;;6.82;76.01
60479;BME280;46321;48.398;11.754;2024-02-28T10:42:57;96925.66;;;6.81;76.32
60479;BME280;46321;48.398;11.754;2024-02-28T10:45:24;96923.69;;;6.93;76.09
60479;BME280;46321;48.398;11.754;2024-02-28T10:47:50;96929.09;;;7.01;75.60
60479;BME280;46321;48.398;11.754;2024-02-28T10:50:16;96931.84;;;7.09;75.79
60479;BME280;46321;48.398;11.754;2024-02-28T10:52:43;96938.47;;;7.04;75.55
60479;BME280;46321;48.398;11.754;2024-02-28T10:55:11;96942.94;;;7.03;75.10
60479;BME280;46321;48.398;11.754;2024-02-28T10:57:39;96942.38;;;6.99;74.80
60479;BME280;46321;48.398;11.754;2024-02-28T11:00:05;96950.25;;;6.99;75.09
60479;BME280;46321;48.398;11.754;2024-02-28T11:02:31;96945.84;;;7.00;74.26
60479;BME280;46321;48.398;11.754;2024-02-28T11:04:57;96945.84;;;7.00;73.93
60479;BME280;46321;48.398;11.754;2024-02-28T11:07:25;96940.31;;;6.83;74.76
60479;BME280;46321;48.398;11.754;2024-02-28T11:09:54;96946.00;;;6.89;74.58
60479;BME280;46321;48.398;11.754;2024-02-28T11:12:27;96948.63;;;6.98;74.79
60479;BME280;46321;48.398;11.754;2024-02-28T11:14:58;96947.78;;;6.98;75.36
60479;BME280;46321;48.398;11.754;2024-02-28T11:17:27;96945.16;;;6.98;75.14
60479;BME280;46321;48.398;11.754;2024-02-28T11:19:53;96943.47;;;6.97;74.68
60479;BME280;46321;48.398;11.754;2024-02-28T11:22:19;96954.69;;;6.99;74.77
60479;BME280;46321;48.398;11.754;2024-02-28T11:24:46;96954.56;;;7.01;74.13
60479;BME280;46321;48.398;11.754;2024-02-28T11:27:12;96949.69;;;7.06;74.63
60479;BME280;46321;48.398;11.754;2024-02-28T11:29:39;96949.00;;;7.04;74.94
60479;BME280;46321;48.398;11.754;2024-02-28T11:32:04;96947.06;;;7.16;74.16
60479;BME280;46321;48.398;11.754;2024-02-28T11:34:30;96949.00;;;7.14;73.53
60479;BME280;46321;48.398;11.754;2024-02-28T11:36:55;96947.47;;;7.21;73.38
60479;BME280;46321;48.398;11.754;2024-02-28T11:39:22;96943.69;;;7.24;72.28
60479;BME280;46321;48.398;11.754;2024-02-28T11:41:49;96946.22;;;7.25;72.11
60479;BME280;46321;48.398;11.754;2024-02-28T11:44:19;96948.69;;;7.27;71.95
60479;BME280;46321;48.398;11.754;2024-02-28T11:46:45;96948.84;;;7.25;72.00
60479;BME280;46321;48.398;11.754;2024-02-28T11:49:12;96949.78;;;7.34;72.43
60479;BME280;46321;48.398;11.754;2024-02-28T11:51:37;96954.31;;;7.42;72.06
60479;BME280;46321;48.398;11.754;2024-02-28T11:54:04;96956.94;;;7.42;72.18
60479;BME280;46321;48.398;11.754;2024-02-28T11:56:30;96950.31;;;7.38;72.28
60479;BME280;46321;48.398;11.754;2024-02-28T11:58:58;96958.78;;;7.41;72.39
60479;BME280;46321;48.398;11.754;2024-02-28T12:01:34;96957.69;;;7.34;72.27
60479;BME280;46321;48.398;11.754;2024-02-28T12:04:02;96962.28;;;7.32;72.32
60479;BME280;46321;48.398;11.754;2024-02-28T12:06:29;96952.28;;;7.36;72.56
60479;BME280;46321;48.398;11.754;2024-02-28T12:08:54;96950.06;;;7.31;72.28
60479;BME280;46321;48.398;11.754;2024-02-28T12:11:19;96958.94;;;7.30;71.89
60479;BME280;46321;48.398;11.754;2024-02-28T12:13:44;96947.59;;;7.29;71.89
60479;BME280;46321;48.398;11.754;2024-02-28T12:16:10;96952.84;;;7.29;71.77
60479;BME280;46321;48.398;11.754;2024-02-28T12:18:35;96957.00;;;7.22;72.45
60479;BME280;46321;48.398;11.754;2024-02-28T12:21:01;96952.31;;;7.26;72.15
60479;BME280;46321;48.398;11.754;2024-02-28T12:23:27;96950.91;;;7.31;72.27
60479;BME280;46321;48.398;11.754;2024-02-28T12:25:52;96950.91;;;7.31;72.39
60479;BME280;46321;48.398;11.754;2024-02-28T12:28:17;96950.53;;;7.16;72.34
60479;BME280;46321;48.398;11.754;2024-02-28T12:30:42;96954.78;;;7.27;73.10
60479;BME280;46321;48.398;11.754;2024-02-28T12:33:09;96942.47;;;7.28;72.29
60479;BME280;46321;48.398;11.754;2024-02-28T12:35:36;96952.84;;;7.29;72.37
60479;BME280;46321;48.398;11.754;2024-02-28T12:38:01;96950.06;;;7.31;72.51
60479;BME280;46321;48.398;11.754;2024-02-28T12:40:27;96948.00;;;7.35;71.71
60479;BME280;46321;48.398;11.754;2024-02-28T12:42:52;96954.47;;;7.40;71.84
60479;BME280;46321;48.398;11.754;2024-02-28T12:45:17;96951.16;;;7.38;71.36
60479;BME280;46321;48.398;11.754;2024-02-28T12:47:43;96957.53;;;7.46;71.87
60479;BME280;46321;48.398;11.754;2024-02-28T12:50:08;96953.22;;;7.44;71.79
60479;BME280;46321;48.398;11.754;2024-02-28T12:52:34;96955.69;;;7.46;71.40